Time;durP1;ratioP1;P1;durP2;ratioP2;P2;SDS_P1;SDS_P2;PMS_P1;PMS_P2;Temp;Humidity;BMP_temperature;BMP_pressure;BME280_temperature;BME280_humidity;BME280_pressure;Samples;Min_cycle;Max_cycle;Signal;HPM_P1;HPM_P2
2023/11/22 00:02:15;;;;;;;62.80;17.67;;;;;;;;;;5019093;28;20108;-59
2023/11/22 00:04:41;;;;;;;62.03;16.60;;;;;;;;;;5014547;28;20113;-62
2023/11/22 00:07:06;;;;;;;62.70;16.93;;;;;;;;;;5019793;28;20128;-60
2023/11/22 00:09:32;;;;;;;68.53;17.40;;;;;;;;;;5017668;28;20025;-62
2023/11/22 00:11:59;;;;;;;65.40;17.20;;;;;;;;;;5016819;28;20091;-62
2023/11/22 00:14:25;;;;;;;68.07;17.10;;;;;;;;;;5019184;28;20599;-61
2023/11/22 00:16:51;;;;;;;71.97;17.40;;;;;;;;;;5016532;28;20036;-60
2023/11/22 00:19:18;;;;;;;67.50;17.13;;;;;;;;;;5014685;28;20037;-62
2023/11/22 00:21:43;;;;;;;70.50;17.63;;;;;;;;;;5013797;28;20056;-64
2023/11/22 00:24:08;;;;;;;70.20;17.80;;;;;;;;;;5019003;28;20461;-64
2023/11/22 00:26:34;;;;;;;67.60;17.10;;;;;;;;;;5016113;28;20091;-64
2023/11/22 00:28:59;;;;;;;69.20;17.43;;;;;;;;;;5018136;28;20025;-64
2023/11/22 00:31:24;;;;;;;69.97;17.17;;;;;;;;;;5019223;28;20423;-65
2023/11/22 00:33:49;;;;;;;74.50;18.23;;;;;;;;;;5016566;28;20042;-64
2023/11/22 00:36:16;;;;;;;70.03;17.43;;;;;;;;;;5016096;28;20017;-64
2023/11/22 00:38:42;;;;;;;87.90;18.97;;;;;;;;;;5022701;28;20030;-64
2023/11/22 00:41:07;;;;;;;74.30;18.30;;;;;;;;;;5022063;28;20025;-64
2023/11/22 00:43:33;;;;;;;78.17;18.63;;;;;;;;;;5016864;28;20478;-63
2023/11/22 00:45:58;;;;;;;80.20;19.10;;;;;;;;;;5015520;28;20022;-64
2023/11/22 00:48:23;;;;;;;86.70;18.67;;;;;;;;;;5013298;28;20506;-63
2023/11/22 00:50:48;;;;;;;94.27;20.23;;;;;;;;;;5019709;28;20029;-64
2023/11/22 00:53:14;;;;;;;82.40;19.47;;;;;;;;;;5020735;28;20021;-64
2023/11/22 00:55:40;;;;;;;81.77;19.20;;;;;;;;;;5020757;28;20025;-65
2023/11/22 00:58:05;;;;;;;87.60;19.70;;;;;;;;;;5016207;28;20061;-64
2023/11/22 01:00:30;;;;;;;88.90;20.53;;;;;;;;;;5013469;28;20056;-64
2023/11/22 01:02:56;;;;;;;94.97;19.77;;;;;;;;;;5019610;28;20021;-65
2023/11/22 01:05:22;;;;;;;96.53;20.27;;;;;;;;;;5010360;28;20025;-65
2023/11/22 01:07:47;;;;;;;92.73;21.70;;;;;;;;;;5017155;28;20022;-65
2023/11/22 01:10:12;;;;;;;80.47;19.13;;;;;;;;;;5014529;28;20437;-65
2023/11/22 01:12:38;;;;;;;83.67;20.43;;;;;;;;;;5014891;28;20057;-65
2023/11/22 01:15:05;;;;;;;87.57;19.50;;;;;;;;;;5015759;28;20132;-66
2023/11/22 01:17:31;;;;;;;92.53;21.07;;;;;;;;;;5012362;28;20025;-66
2023/11/22 01:19:56;;;;;;;92.20;20.47;;;;;;;;;;5015123;28;20466;-66
2023/11/22 01:22:22;;;;;;;98.83;20.23;;;;;;;;;;5009599;28;20087;-66
2023/11/22 01:24:48;;;;;;;97.17;22.33;;;;;;;;;;5014329;28;20048;-66
2023/11/22 01:27:13;;;;;;;103.17;22.10;;;;;;;;;;5015916;28;20026;-66
2023/11/22 01:29:38;;;;;;;107.23;23.17;;;;;;;;;;5016392;28;20026;-67
2023/11/22 01:32:04;;;;;;;115.07;22.37;;;;;;;;;;5018117;28;20120;-65
2023/11/22 01:34:30;;;;;;;92.37;22.37;;;;;;;;;;5015427;28;20030;-67
2023/11/22 01:36:55;;;;;;;105.17;22.03;;;;;;;;;;5013322;28;20623;-66
2023/11/22 01:39:20;;;;;;;106.80;22.03;;;;;;;;;;5017925;28;20020;-67
2023/11/22 01:41:46;;;;;;;108.23;22.23;;;;;;;;;;5021746;28;20026;-62
2023/11/22 01:44:12;;;;;;;104.77;22.10;;;;;;;;;;5019183;28;20029;-62
2023/11/22 01:46:37;;;;;;;101.93;21.63;;;;;;;;;;5022458;28;20096;-62
2023/11/22 01:49:03;;;;;;;108.30;23.83;;;;;;;;;;5022748;28;20500;-64
2023/11/22 01:51:28;;;;;;;107.30;24.37;;;;;;;;;;5021135;28;20021;-64
2023/11/22 01:53:55;;;;;;;115.77;23.47;;;;;;;;;;5023760;28;20111;-62
2023/11/22 01:56:21;;;;;;;99.60;22.17;;;;;;;;;;5017047;28;20470;-62
2023/11/22 01:58:47;;;;;;;97.60;22.93;;;;;;;;;;5024257;28;20485;-63
2023/11/22 02:01:12;;;;;;;105.43;22.83;;;;;;;;;;5017404;28;20053;-61
2023/11/22 02:03:38;;;;;;;115.07;22.97;;;;;;;;;;5021974;28;20124;-62
2023/11/22 02:06:05;;;;;;;106.47;23.13;;;;;;;;;;5023744;28;20025;-63
2023/11/22 02:08:30;;;;;;;120.33;24.17;;;;;;;;;;5014211;28;20044;-62
2023/11/22 02:10:59;;;;;;;117.43;25.10;;;;;;;;;;5023587;28;20029;-61
2023/11/22 02:13:24;;;;;;;111.50;24.13;;;;;;;;;;5015383;28;20120;-62
2023/11/22 02:15:50;;;;;;;121.87;26.70;;;;;;;;;;5017905;28;20448;-64
2023/11/22 02:18:15;;;;;;;119.47;24.77;;;;;;;;;;5019657;28;20033;-62
2023/11/22 02:20:43;;;;;;;118.03;25.70;;;;;;;;;;5018649;28;20421;-63
2023/11/22 02:23:11;;;;;;;120.70;25.07;;;;;;;;;;5023074;28;20056;-62
2023/11/22 02:25:36;;;;;;;125.43;24.83;;;;;;;;;;5014899;28;20099;-62
2023/11/22 02:28:02;;;;;;;147.50;27.20;;;;;;;;;;5016635;28;20030;-63
2023/11/22 02:30:27;;;;;;;144.33;26.67;;;;;;;;;;5022182;28;20532;-64
2023/11/22 02:32:53;;;;;;;136.03;26.67;;;;;;;;;;5016778;28;20017;-64
2023/11/22 02:35:19;;;;;;;130.60;26.40;;;;;;;;;;5020047;28;20029;-64
2023/11/22 02:37:45;;;;;;;143.50;27.30;;;;;;;;;;5019757;28;20033;-61
2023/11/22 02:40:18;;;;;;;134.77;27.70;;;;;;;;;;5017738;28;20026;-62
2023/11/22 02:42:44;;;;;;;147.47;27.27;;;;;;;;;;5022088;28;20519;-62
2023/11/22 02:45:09;;;;;;;141.57;27.07;;;;;;;;;;5018990;28;20014;-62
2023/11/22 02:47:34;;;;;;;145.50;26.37;;;;;;;;;;5021090;28;20022;-62
2023/11/22 02:50:00;;;;;;;124.40;26.13;;;;;;;;;;5022639;28;20158;-63
2023/11/22 02:52:26;;;;;;;141.30;26.93;;;;;;;;;;5019537;28;20057;-66
2023/11/22 02:54:51;;;;;;;145.97;28.70;;;;;;;;;;5021744;28;20393;-68
2023/11/22 02:57:16;;;;;;;134.10;27.63;;;;;;;;;;5022941;28;20022;-67
2023/11/22 02:59:42;;;;;;;139.90;28.27;;;;;;;;;;5021437;28;20064;-67
2023/11/22 03:02:07;;;;;;;146.70;29.00;;;;;;;;;;5022713;28;20573;-65
2023/11/22 03:04:33;;;;;;;139.47;26.97;;;;;;;;;;5016870;28;20025;-66
2023/11/22 03:06:59;;;;;;;134.80;27.77;;;;;;;;;;5017279;28;20372;-65
2023/11/22 03:09:25;;;;;;;148.73;27.67;;;;;;;;;;5019940;28;20022;-67
2023/11/22 03:11:51;;;;;;;132.87;27.40;;;;;;;;;;5019176;28;20021;-67
2023/11/22 03:14:17;;;;;;;132.10;27.73;;;;;;;;;;5018711;28;20021;-66
2023/11/22 03:16:42;;;;;;;143.43;28.40;;;;;;;;;;5014164;28;20030;-66
2023/11/22 03:19:07;;;;;;;139.43;28.57;;;;;;;;;;5019403;28;20113;-67
2023/11/22 03:21:35;;;;;;;148.57;28.40;;;;;;;;;;5017462;28;20049;-66
2023/11/22 03:24:03;;;;;;;131.60;27.83;;;;;;;;;;5016783;28;20026;-67
2023/11/22 03:26:28;;;;;;;138.20;27.13;;;;;;;;;;5022690;28;20470;-67
2023/11/22 03:28:54;;;;;;;121.47;25.97;;;;;;;;;;5016524;28;20048;-67
2023/11/22 03:31:19;;;;;;;142.80;27.53;;;;;;;;;;5021571;28;20136;-66
2023/11/22 03:33:45;;;;;;;137.30;25.50;;;;;;;;;;5016438;28;20061;-67
2023/11/22 03:36:11;;;;;;;122.67;25.33;;;;;;;;;;5013186;28;20410;-66
2023/11/22 03:38:36;;;;;;;130.73;25.53;;;;;;;;;;5016387;28;20127;-66
2023/11/22 03:41:01;;;;;;;135.30;26.17;;;;;;;;;;5018254;28;20025;-66
2023/11/22 03:43:26;;;;;;;128.50;25.63;;;;;;;;;;5018884;28;20486;-66
2023/11/22 03:45:52;;;;;;;141.80;27.57;;;;;;;;;;5017902;28;20025;-67
2023/11/22 03:48:17;;;;;;;149.77;27.57;;;;;;;;;;5019543;28;20021;-66
2023/11/22 03:50:42;;;;;;;157.47;28.80;;;;;;;;;;5018926;28;20056;-67
2023/11/22 03:53:07;;;;;;;122.40;26.40;;;;;;;;;;5021633;28;20059;-66
2023/11/22 03:55:33;;;;;;;137.73;27.37;;;;;;;;;;5016871;28;20018;-67
2023/11/22 03:57:58;;;;;;;127.23;25.67;;;;;;;;;;5020331;28;20448;-66
2023/11/22 04:00:24;;;;;;;125.77;26.87;;;;;;;;;;5019882;28;20534;-67
2023/11/22 04:02:49;;;;;;;126.00;24.53;;;;;;;;;;5018394;28;20492;-63
2023/11/22 04:05:15;;;;;;;158.73;27.47;;;;;;;;;;5018702;28;20041;-62
2023/11/22 04:07:40;;;;;;;142.77;28.30;;;;;;;;;;5018335;28;20103;-62
2023/11/22 04:10:06;;;;;;;158.80;27.83;;;;;;;;;;5018044;28;20068;-62
2023/11/22 04:12:32;;;;;;;139.83;25.83;;;;;;;;;;5020775;28;20022;-64
2023/11/22 04:14:57;;;;;;;154.03;27.50;;;;;;;;;;5017176;28;20500;-63
2023/11/22 04:17:22;;;;;;;165.43;30.47;;;;;;;;;;5018750;28;20017;-63
2023/11/22 04:19:48;;;;;;;157.77;28.40;;;;;;;;;;5017926;28;20376;-62
2023/11/22 04:22:13;;;;;;;173.73;28.83;;;;;;;;;;5017704;28;20049;-61
2023/11/22 04:24:39;;;;;;;159.00;26.77;;;;;;;;;;5017695;28;20116;-63
2023/11/22 04:27:04;;;;;;;156.17;25.50;;;;;;;;;;5018485;28;20121;-62
2023/11/22 04:29:30;;;;;;;159.30;26.63;;;;;;;;;;5018481;28;20155;-62
2023/11/22 04:31:55;;;;;;;141.83;26.53;;;;;;;;;;5010199;28;20026;-62
2023/11/22 04:34:20;;;;;;;144.87;27.57;;;;;;;;;;5013915;28;20052;-62
2023/11/22 04:36:46;;;;;;;167.93;27.87;;;;;;;;;;5016719;28;20066;-62
2023/11/22 04:39:12;;;;;;;156.93;29.00;;;;;;;;;;5015159;28;20105;-64
2023/11/22 04:41:38;;;;;;;155.87;28.20;;;;;;;;;;5016943;28;20500;-61
2023/11/22 04:44:03;;;;;;;156.10;28.47;;;;;;;;;;5011888;28;20101;-61
2023/11/22 04:46:28;;;;;;;167.73;28.80;;;;;;;;;;5016375;28;20021;-62
2023/11/22 04:48:54;;;;;;;151.07;29.73;;;;;;;;;;5022156;28;20073;-62
2023/11/22 04:51:19;;;;;;;167.17;28.97;;;;;;;;;;5015489;28;20024;-62
2023/11/22 04:53:44;;;;;;;159.13;30.40;;;;;;;;;;5019062;28;20018;-62
2023/11/22 04:56:10;;;;;;;159.30;30.27;;;;;;;;;;5016102;28;20045;-62
2023/11/22 04:58:35;;;;;;;170.90;30.30;;;;;;;;;;5018502;28;20032;-61
2023/11/22 05:01:01;;;;;;;167.50;29.27;;;;;;;;;;5019006;28;20021;-62
2023/11/22 05:03:26;;;;;;;163.50;29.13;;;;;;;;;;5021135;28;20024;-62
2023/11/22 05:05:52;;;;;;;138.90;27.57;;;;;;;;;;5017323;28;20101;-62
2023/11/22 05:08:17;;;;;;;145.63;26.83;;;;;;;;;;5018233;28;20092;-63
2023/11/22 05:10:42;;;;;;;136.63;25.53;;;;;;;;;;5017794;28;20025;-61
2023/11/22 05:13:07;;;;;;;146.77;27.20;;;;;;;;;;5016115;28;20030;-64
2023/11/22 05:15:33;;;;;;;134.67;26.20;;;;;;;;;;5017374;28;20026;-62
2023/11/22 05:17:59;;;;;;;143.20;26.00;;;;;;;;;;5017563;28;20030;-62
2023/11/22 05:20:24;;;;;;;135.30;26.10;;;;;;;;;;5015361;28;20025;-62
2023/11/22 05:22:49;;;;;;;154.20;27.53;;;;;;;;;;5014755;28;20054;-62
2023/11/22 05:25:15;;;;;;;155.50;27.33;;;;;;;;;;5012819;28;20038;-63
2023/11/22 05:27:40;;;;;;;141.47;27.23;;;;;;;;;;5020146;28;20029;-62
2023/11/22 05:30:06;;;;;;;142.97;27.43;;;;;;;;;;5013416;28;20080;-61
2023/11/22 05:32:31;;;;;;;134.50;24.70;;;;;;;;;;5014717;28;20566;-61
2023/11/22 05:34:56;;;;;;;235.13;26.77;;;;;;;;;;5013267;28;20040;-63
2023/11/22 05:37:22;;;;;;;436.10;30.57;;;;;;;;;;5017121;28;20048;-61
2023/11/22 05:39:47;;;;;;;209.20;26.83;;;;;;;;;;5015167;28;20022;-61
2023/11/22 05:42:12;;;;;;;240.53;26.40;;;;;;;;;;5013616;28;20029;-62
2023/11/22 05:44:38;;;;;;;405.10;31.53;;;;;;;;;;5016863;28;20038;-63
2023/11/22 05:47:03;;;;;;;213.93;27.97;;;;;;;;;;5015522;28;20374;-60
2023/11/22 05:49:28;;;;;;;191.17;25.63;;;;;;;;;;5018020;28;20462;-62
2023/11/22 05:51:54;;;;;;;180.97;26.37;;;;;;;;;;5013874;28;20056;-62
2023/11/22 05:54:19;;;;;;;218.70;27.67;;;;;;;;;;5017265;28;20034;-61
2023/11/22 05:56:44;;;;;;;171.10;28.23;;;;;;;;;;5021268;28;20065;-61
2023/11/22 05:59:10;;;;;;;194.33;28.03;;;;;;;;;;5017653;28;20029;-60
2023/11/22 06:01:35;;;;;;;284.20;30.77;;;;;;;;;;5020612;28;20033;-61
2023/11/22 06:04:00;;;;;;;323.00;33.67;;;;;;;;;;5017028;28;20029;-62
2023/11/22 06:06:25;;;;;;;354.03;34.70;;;;;;;;;;5017793;28;20075;-62
2023/11/22 06:08:51;;;;;;;344.37;32.97;;;;;;;;;;5019085;28;20370;-61
2023/11/22 06:11:16;;;;;;;384.10;34.73;;;;;;;;;;5018057;28;20025;-63
2023/11/22 06:13:46;;;;;;;375.33;35.07;;;;;;;;;;5018813;28;20030;-62
2023/11/22 06:16:12;;;;;;;447.80;37.10;;;;;;;;;;5013414;28;20464;-61
2023/11/22 06:18:40;;;;;;;528.33;40.93;;;;;;;;;;5018883;28;20029;-63
2023/11/22 06:21:06;;;;;;;416.73;35.63;;;;;;;;;;5013938;28;20462;-62
2023/11/22 06:23:31;;;;;;;391.97;35.43;;;;;;;;;;5015067;28;20035;-61
2023/11/22 06:25:56;;;;;;;448.50;35.80;;;;;;;;;;5016183;28;20026;-61
2023/11/22 06:28:22;;;;;;;458.23;35.73;;;;;;;;;;5017206;28;20096;-63
2023/11/22 06:30:47;;;;;;;369.20;32.87;;;;;;;;;;5018016;28;20458;-63
2023/11/22 06:33:12;;;;;;;375.07;34.07;;;;;;;;;;5014354;28;20028;-61
2023/11/22 06:35:38;;;;;;;387.97;32.37;;;;;;;;;;5020667;28;20087;-61
2023/11/22 06:38:03;;;;;;;415.80;35.20;;;;;;;;;;5016344;28;20025;-63
2023/11/22 06:40:29;;;;;;;337.53;32.07;;;;;;;;;;5014666;28;20021;-62
2023/11/22 06:42:55;;;;;;;341.43;32.33;;;;;;;;;;5013892;28;20534;-62
2023/11/22 06:45:21;;;;;;;345.93;32.53;;;;;;;;;;5015603;28;20113;-62
2023/11/22 06:47:46;;;;;;;281.57;30.30;;;;;;;;;;5022620;28;20030;-63
2023/11/22 06:50:12;;;;;;;286.90;29.67;;;;;;;;;;5010772;28;20022;-64
2023/11/22 06:52:38;;;;;;;293.10;31.77;;;;;;;;;;5013480;28;20086;-62
2023/11/22 06:55:03;;;;;;;248.87;28.67;;;;;;;;;;5017637;28;20619;-62
2023/11/22 06:57:29;;;;;;;253.00;29.13;;;;;;;;;;5018758;28;20087;-63
2023/11/22 06:59:55;;;;;;;232.30;28.10;;;;;;;;;;5019760;28;20057;-61
2023/11/22 07:02:20;;;;;;;163.73;26.10;;;;;;;;;;5012888;28;20049;-62
2023/11/22 07:04:45;;;;;;;153.90;29.40;;;;;;;;;;5021210;28;20493;-62
2023/11/22 07:07:11;;;;;;;162.03;26.13;;;;;;;;;;5020250;28;20067;-64
2023/11/22 07:09:36;;;;;;;150.13;25.20;;;;;;;;;;5022255;28;20088;-63
2023/11/22 07:12:02;;;;;;;175.13;25.87;;;;;;;;;;5018866;28;20053;-62
2023/11/22 07:14:29;;;;;;;174.30;27.23;;;;;;;;;;5020914;28;20034;-61
2023/11/22 07:16:55;;;;;;;172.00;25.80;;;;;;;;;;5019215;28;20031;-64
2023/11/22 07:19:20;;;;;;;181.40;26.23;;;;;;;;;;5018671;28;20030;-63
2023/11/22 07:21:48;;;;;;;220.40;26.97;;;;;;;;;;5015454;28;20057;-61
2023/11/22 07:24:15;;;;;;;219.83;26.07;;;;;;;;;;5015760;28;20109;-63
2023/11/22 07:26:42;;;;;;;201.90;25.20;;;;;;;;;;5017037;28;20026;-62
2023/11/22 07:29:07;;;;;;;160.00;24.63;;;;;;;;;;5019610;28;20043;-62
2023/11/22 07:31:32;;;;;;;161.43;24.70;;;;;;;;;;5016943;28;20329;-61
2023/11/22 07:33:57;;;;;;;152.40;26.13;;;;;;;;;;5017309;28;20532;-62
2023/11/22 07:36:23;;;;;;;149.57;23.40;;;;;;;;;;5019508;28;20025;-63
2023/11/22 07:38:48;;;;;;;125.63;23.63;;;;;;;;;;5013432;28;20033;-62
2023/11/22 07:41:13;;;;;;;134.63;24.53;;;;;;;;;;5019716;28;20033;-62
2023/11/22 07:43:38;;;;;;;169.87;29.23;;;;;;;;;;5018093;28;20037;-62
2023/11/22 07:46:12;;;;;;;201.63;29.50;;;;;;;;;;5017462;28;20041;-62
2023/11/22 07:48:44;;;;;;;138.83;25.70;;;;;;;;;;5014032;28;20018;-62
2023/11/22 07:51:10;;;;;;;174.20;25.97;;;;;;;;;;5015069;28;20080;-62
2023/11/22 07:53:35;;;;;;;147.03;26.53;;;;;;;;;;5019893;28;20041;-61
2023/11/22 07:56:04;;;;;;;137.77;25.77;;;;;;;;;;5017646;28;20745;-62
2023/11/22 07:58:32;;;;;;;137.60;25.77;;;;;;;;;;5016107;28;20048;-62
2023/11/22 08:01:05;;;;;;;125.20;24.97;;;;;;;;;;5016713;28;20055;-63
2023/11/22 08:03:30;;;;;;;227.03;27.70;;;;;;;;;;5022116;28;20459;-63
2023/11/22 08:05:56;;;;;;;157.07;25.53;;;;;;;;;;5014281;28;20029;-63
2023/11/22 08:08:21;;;;;;;148.00;27.17;;;;;;;;;;5014560;28;20064;-63
2023/11/22 08:10:48;;;;;;;141.17;25.10;;;;;;;;;;5017177;28;20025;-62
2023/11/22 08:13:15;;;;;;;174.50;25.40;;;;;;;;;;5018774;28;20406;-62
2023/11/22 08:15:40;;;;;;;143.37;25.43;;;;;;;;;;5020787;28;20365;-64
2023/11/22 08:18:05;;;;;;;148.80;26.73;;;;;;;;;;5016117;28;20064;-62
2023/11/22 08:20:31;;;;;;;122.73;23.03;;;;;;;;;;5014399;28;20049;-62
2023/11/22 08:22:57;;;;;;;191.57;27.27;;;;;;;;;;5016817;28;20093;-63
2023/11/22 08:25:22;;;;;;;130.67;25.47;;;;;;;;;;5009522;28;20029;-63
2023/11/22 08:27:47;;;;;;;147.27;23.63;;;;;;;;;;5019834;28;20060;-61
2023/11/22 08:30:13;;;;;;;151.87;25.10;;;;;;;;;;5017163;28;20021;-62
2023/11/22 08:32:48;;;;;;;213.37;27.27;;;;;;;;;;5016059;28;20610;-62
2023/11/22 08:35:15;;;;;;;130.10;24.00;;;;;;;;;;5013856;28;20026;-64
2023/11/22 08:37:41;;;;;;;201.00;24.77;;;;;;;;;;5015740;28;20055;-63
2023/11/22 08:40:07;;;;;;;177.23;26.53;;;;;;;;;;5014439;28;20056;-63
2023/11/22 08:42:33;;;;;;;169.80;24.33;;;;;;;;;;5018489;28;20021;-63
2023/11/22 08:44:59;;;;;;;163.47;23.57;;;;;;;;;;5013693;28;20444;-67
2023/11/22 08:47:24;;;;;;;158.13;22.53;;;;;;;;;;5014514;28;20036;-68
2023/11/22 08:49:49;;;;;;;108.27;21.53;;;;;;;;;;5016542;28;20018;-66
2023/11/22 08:52:14;;;;;;;127.77;21.73;;;;;;;;;;5020697;28;20144;-67
2023/11/22 08:54:41;;;;;;;160.03;24.73;;;;;;;;;;5016419;28;20036;-68
2023/11/22 08:57:06;;;;;;;157.37;23.70;;;;;;;;;;5012014;28;20014;-65
2023/11/22 08:59:37;;;;;;;108.57;21.83;;;;;;;;;;5012408;28;20032;-65
2023/11/22 09:02:03;;;;;;;95.80;21.20;;;;;;;;;;5016460;28;20026;-65
2023/11/22 09:04:29;;;;;;;91.03;21.30;;;;;;;;;;5014347;28;20245;-65
2023/11/22 09:06:56;;;;;;;88.60;21.60;;;;;;;;;;5015329;28;20479;-65
2023/11/22 09:09:27;;;;;;;84.33;20.40;;;;;;;;;;5009245;28;20025;-65
2023/11/22 09:11:52;;;;;;;72.23;19.13;;;;;;;;;;5017328;28;20493;-65
2023/11/22 09:14:19;;;;;;;80.43;19.60;;;;;;;;;;5020237;28;20053;-65
2023/11/22 09:16:45;;;;;;;72.17;19.23;;;;;;;;;;5011636;28;20056;-65
2023/11/22 09:19:11;;;;;;;85.33;19.63;;;;;;;;;;5009685;28;20450;-66
2023/11/22 09:21:36;;;;;;;86.17;19.60;;;;;;;;;;5017667;28;20096;-65
2023/11/22 09:24:04;;;;;;;82.37;18.90;;;;;;;;;;5017185;28;20462;-67
2023/11/22 09:26:29;;;;;;;80.87;18.97;;;;;;;;;;5012829;28;20061;-66
2023/11/22 09:28:54;;;;;;;87.17;18.80;;;;;;;;;;5010329;28;20057;-65
2023/11/22 09:31:20;;;;;;;74.27;17.43;;;;;;;;;;5015513;28;20041;-66
2023/11/22 09:33:46;;;;;;;87.63;17.87;;;;;;;;;;5016023;28;20022;-66
2023/11/22 09:36:12;;;;;;;56.80;17.50;;;;;;;;;;5017134;28;20028;-66
2023/11/22 09:38:37;;;;;;;58.27;16.40;;;;;;;;;;5013315;28;20529;-65
2023/11/22 09:41:03;;;;;;;79.77;18.17;;;;;;;;;;5015793;28;20381;-65
2023/11/22 09:43:28;;;;;;;59.37;17.23;;;;;;;;;;5014067;28;20622;-67
2023/11/22 09:45:55;;;;;;;56.37;16.50;;;;;;;;;;5012833;28;20025;-66
2023/11/22 09:48:22;;;;;;;54.67;16.63;;;;;;;;;;5016433;28;20025;-65
2023/11/22 09:50:50;;;;;;;49.27;16.27;;;;;;;;;;5014909;28;20029;-65
2023/11/22 09:53:30;;;;;;;45.23;15.37;;;;;;;;;;4999618;28;20064;-62
2023/11/22 09:55:55;;;;;;;48.10;16.10;;;;;;;;;;5019441;28;20519;-63
2023/11/22 09:58:21;;;;;;;45.27;14.73;;;;;;;;;;5013133;28;20029;-62
2023/11/22 10:00:47;;;;;;;46.00;14.47;;;;;;;;;;5015944;28;20115;-63
2023/11/22 10:03:14;;;;;;;41.73;14.03;;;;;;;;;;5019879;28;20477;-63
2023/11/22 10:05:42;;;;;;;39.37;14.50;;;;;;;;;;5015387;28;20485;-63
2023/11/22 10:08:09;;;;;;;44.13;14.00;;;;;;;;;;5017664;28;20032;-62
2023/11/22 10:10:36;;;;;;;44.77;15.03;;;;;;;;;;5018546;28;20473;-62
2023/11/22 10:13:01;;;;;;;43.67;15.30;;;;;;;;;;5021950;28;20028;-63
2023/11/22 10:15:27;;;;;;;40.73;14.83;;;;;;;;;;5016566;28;20449;-64
2023/11/22 10:17:56;;;;;;;38.83;13.73;;;;;;;;;;5018284;28;20991;-63
2023/11/22 10:20:25;;;;;;;39.57;14.40;;;;;;;;;;5023317;28;20420;-62
2023/11/22 10:22:51;;;;;;;41.40;14.13;;;;;;;;;;5016689;28;20041;-62
2023/11/22 10:25:19;;;;;;;34.93;13.50;;;;;;;;;;5023884;28;20029;-63
2023/11/22 10:27:45;;;;;;;34.43;12.93;;;;;;;;;;5021087;28;20025;-62
2023/11/22 10:30:11;;;;;;;33.23;12.57;;;;;;;;;;5023049;28;20461;-64
2023/11/22 10:32:37;;;;;;;30.30;12.47;;;;;;;;;;5020587;28;20018;-62
2023/11/22 10:35:03;;;;;;;33.93;11.60;;;;;;;;;;5020078;28;20030;-64
2023/11/22 10:37:29;;;;;;;31.40;11.97;;;;;;;;;;5018642;28;20029;-64
2023/11/22 10:39:55;;;;;;;29.20;11.40;;;;;;;;;;5020478;28;20090;-62
2023/11/22 10:42:21;;;;;;;31.90;11.67;;;;;;;;;;5019402;28;20025;-63
2023/11/22 10:44:48;;;;;;;29.23;11.37;;;;;;;;;;5017718;28;20029;-62
2023/11/22 10:47:14;;;;;;;30.90;11.17;;;;;;;;;;5015737;28;20504;-64
2023/11/22 10:49:40;;;;;;;25.10;10.70;;;;;;;;;;5020520;28;20025;-63
2023/11/22 10:52:07;;;;;;;28.53;11.00;;;;;;;;;;5014741;28;20037;-64
2023/11/22 10:54:34;;;;;;;28.53;11.30;;;;;;;;;;5019608;28;20562;-62
2023/11/22 10:57:01;;;;;;;25.47;11.30;;;;;;;;;;5016570;28;20033;-64
2023/11/22 10:59:28;;;;;;;23.20;9.67;;;;;;;;;;5018213;28;20017;-63
2023/11/22 11:01:56;;;;;;;21.97;9.83;;;;;;;;;;5018490;28;20531;-63
2023/11/22 11:04:27;;;;;;;22.57;9.90;;;;;;;;;;5018551;28;20358;-67
2023/11/22 11:06:55;;;;;;;19.67;9.18;;;;;;;;;;5025009;28;20022;-68
2023/11/22 11:09:22;;;;;;;18.93;8.83;;;;;;;;;;5019705;28;20025;-67
2023/11/22 11:11:47;;;;;;;20.43;8.67;;;;;;;;;;5017608;28;20030;-67
2023/11/22 11:14:15;;;;;;;20.40;8.40;;;;;;;;;;5012948;28;20034;-66
2023/11/22 11:16:41;;;;;;;20.53;8.80;;;;;;;;;;5018697;28;20725;-68
2023/11/22 11:19:07;;;;;;;22.33;8.90;;;;;;;;;;5020506;28;20022;-68
2023/11/22 11:21:33;;;;;;;20.63;9.87;;;;;;;;;;5015433;28;20063;-68
2023/11/22 11:24:02;;;;;;;19.97;9.27;;;;;;;;;;5015663;28;20478;-68
2023/11/22 11:26:28;;;;;;;17.73;8.60;;;;;;;;;;5015060;28;20048;-67
2023/11/22 11:28:54;;;;;;;18.83;9.00;;;;;;;;;;5021513;28;20462;-67
2023/11/22 11:31:22;;;;;;;19.50;8.70;;;;;;;;;;5013968;28;20021;-68
2023/11/22 11:33:48;;;;;;;21.23;8.90;;;;;;;;;;5015412;28;20149;-69
2023/11/22 11:36:20;;;;;;;18.43;7.97;;;;;;;;;;5012784;28;20109;-66
2023/11/22 11:38:49;;;;;;;19.07;9.30;;;;;;;;;;5016925;28;20030;-68
2023/11/22 11:41:14;;;;;;;20.00;8.47;;;;;;;;;;5014715;28;20017;-67
2023/11/22 11:43:43;;;;;;;17.53;8.20;;;;;;;;;;5016273;28;20192;-68
2023/11/22 11:46:09;;;;;;;20.00;8.63;;;;;;;;;;5015941;28;20029;-68
2023/11/22 11:48:35;;;;;;;17.87;8.53;;;;;;;;;;5018233;28;20593;-68
2023/11/22 11:51:00;;;;;;;19.50;8.27;;;;;;;;;;5018932;28;20025;-67
2023/11/22 11:53:26;;;;;;;16.33;8.17;;;;;;;;;;5018147;28;20036;-67
2023/11/22 11:55:53;;;;;;;15.73;8.03;;;;;;;;;;5015789;28;20096;-67
2023/11/22 11:58:18;;;;;;;17.07;7.77;;;;;;;;;;5018058;28;20025;-67
2023/11/22 12:00:44;;;;;;;15.23;7.63;;;;;;;;;;5019286;28;20021;-68
2023/11/22 12:03:10;;;;;;;15.93;7.67;;;;;;;;;;5015269;28;20018;-66
2023/11/22 12:05:35;;;;;;;14.20;7.20;;;;;;;;;;5015408;28;20134;-68
2023/11/22 12:08:02;;;;;;;14.70;6.87;;;;;;;;;;5020539;28;20018;-67
2023/11/22 12:10:27;;;;;;;15.27;7.27;;;;;;;;;;5016514;28;20029;-68
2023/11/22 12:12:52;;;;;;;12.90;6.50;;;;;;;;;;5015173;28;20030;-67
2023/11/22 12:15:18;;;;;;;12.63;6.50;;;;;;;;;;5018327;28;20104;-67
2023/11/22 12:17:44;;;;;;;10.33;5.30;;;;;;;;;;5017265;28;20096;-68
2023/11/22 12:20:13;;;;;;;10.07;5.53;;;;;;;;;;5014385;28;20373;-66
2023/11/22 12:22:39;;;;;;;9.70;5.20;;;;;;;;;;4998123;28;20050;-66
2023/11/22 12:25:05;;;;;;;9.67;5.43;;;;;;;;;;4997729;28;20129;-67
2023/11/22 12:27:31;;;;;;;9.37;4.77;;;;;;;;;;4997351;28;20698;-69
2023/11/22 12:29:57;;;;;;;9.30;4.60;;;;;;;;;;4998319;28;20019;-66
2023/11/22 12:32:23;;;;;;;9.43;4.87;;;;;;;;;;4996097;28;20431;-67
2023/11/22 12:34:49;;;;;;;8.00;4.47;;;;;;;;;;4990833;28;20636;-70
2023/11/22 12:37:15;;;;;;;9.83;4.67;;;;;;;;;;4999407;28;20022;-66
2023/11/22 12:39:41;;;;;;;10.00;5.37;;;;;;;;;;5001103;28;20033;-67
2023/11/22 12:42:07;;;;;;;8.63;4.50;;;;;;;;;;4995870;28;20030;-67
2023/11/22 12:44:47;;;;;;;8.03;4.50;;;;;;;;;;4993679;28;20093;-68
2023/11/22 12:47:12;;;;;;;8.07;3.73;;;;;;;;;;4999098;28;20116;-67
2023/11/22 12:49:47;;;;;;;7.77;3.70;;;;;;;;;;5003154;28;20541;-67
2023/11/22 12:52:12;;;;;;;8.60;4.10;;;;;;;;;;4992330;28;20079;-68
2023/11/22 12:54:38;;;;;;;6.27;3.73;;;;;;;;;;4993764;28;20474;-65
2023/11/22 12:57:07;;;;;;;6.40;3.40;;;;;;;;;;4995738;28;20034;-65
2023/11/22 12:59:32;;;;;;;6.57;3.33;;;;;;;;;;4997857;28;20033;-66
2023/11/22 13:01:59;;;;;;;7.80;3.23;;;;;;;;;;4997559;28;20958;-65
2023/11/22 13:04:24;;;;;;;6.50;3.30;;;;;;;;;;4992684;28;20105;-68
2023/11/22 13:06:50;;;;;;;6.60;3.00;;;;;;;;;;4997758;28;20164;-65
2023/11/22 13:09:16;;;;;;;7.47;3.47;;;;;;;;;;4995048;28;20097;-66
2023/11/22 13:11:45;;;;;;;6.77;2.93;;;;;;;;;;4998656;28;20473;-68
2023/11/22 13:14:14;;;;;;;6.57;3.27;;;;;;;;;;4993313;28;20486;-67
2023/11/22 13:16:39;;;;;;;6.67;2.60;;;;;;;;;;4995872;28;20710;-68
2023/11/22 13:19:04;;;;;;;6.10;2.27;;;;;;;;;;4995029;28;20165;-68
2023/11/22 13:21:31;;;;;;;3.87;2.03;;;;;;;;;;4999830;28;20386;-67
2023/11/22 13:23:57;;;;;;;4.73;2.30;;;;;;;;;;5019097;28;20117;-66
2023/11/22 13:26:22;;;;;;;4.13;2.13;;;;;;;;;;5015895;28;20022;-68
2023/11/22 13:28:51;;;;;;;4.90;2.53;;;;;;;;;;5014139;28;20670;-68
2023/11/22 13:31:16;;;;;;;4.57;2.30;;;;;;;;;;5014071;28;20017;-68
2023/11/22 13:33:43;;;;;;;6.10;3.43;;;;;;;;;;5015290;28;20393;-67
2023/11/22 13:36:10;;;;;;;4.40;2.50;;;;;;;;;;5017206;28;20025;-63
2023/11/22 13:38:35;;;;;;;10.77;4.57;;;;;;;;;;5019402;28;20502;-62
2023/11/22 13:41:01;;;;;;;6.03;2.90;;;;;;;;;;5020488;28;20033;-62
2023/11/22 13:43:26;;;;;;;7.00;3.53;;;;;;;;;;5015279;28;20030;-62
2023/11/22 13:45:52;;;;;;;7.07;3.13;;;;;;;;;;5017369;28;20485;-63
2023/11/22 13:48:17;;;;;;;5.77;2.83;;;;;;;;;;5025047;28;20108;-62
2023/11/22 13:50:42;;;;;;;6.70;2.47;;;;;;;;;;5022766;28;20049;-63
2023/11/22 13:53:10;;;;;;;5.30;2.70;;;;;;;;;;5015133;28;20025;-62
2023/11/22 13:55:36;;;;;;;5.50;2.87;;;;;;;;;;5018598;28;20026;-63
2023/11/22 13:58:02;;;;;;;5.43;3.00;;;;;;;;;;5020719;28;20026;-62
2023/11/22 14:00:33;;;;;;;6.80;2.93;;;;;;;;;;5019271;28;20381;-62
2023/11/22 14:03:04;;;;;;;7.27;2.60;;;;;;;;;;5016264;28;20068;-62
2023/11/22 14:05:29;;;;;;;5.32;2.60;;;;;;;;;;5019080;28;20048;-62
2023/11/22 14:07:55;;;;;;;5.07;2.67;;;;;;;;;;5020140;28;20105;-63